Date,TemperatureHighF,TemperatureAvgF,TemperatureLowF,DewpointHighF,DewpointAvgF,DewpointLowF,HumidityHigh,HumidityAvg,HumidityLow,PressureMaxIn,PressureMinIn,WindSpeedMaxMPH,WindSpeedAvgMPH,GustSpeedMaxMPH,PrecipitationSumIn
2013-3-1,47,42,37,27,22,16,60,46,38,30.00,29.85,12,2,12,0.00
2013-3-2,42,35,30,20,16,12,57,45,39,30.03,29.91,11,2,11,0.00
2013-3-3,41,34,28,17,14,0,54,43,37,30.03,29.88,14,3,14,0.00
2013-3-4,43,34,26,16,12,8,49,39,34,30.18,30.00,17,3,228,0.00
2013-3-5,44,35,22,23,16,9,72,47,34,30.21,29.97,10,1,10,0.00
2013-3-6,41,38,34,36,32,21,96,80,49,30.09,29.74,24,7,24,0.00
2013-3-7,49,42,35,24,20,16,55,41,33,30.30,30.06,17,4,17,0.00
2013-3-8,48,42,34,23,19,15,53,39,34,30.39,30.21,19,4,19,0.00
2013-3-9,60,43,33,24,18,0,50,37,25,30.47,30.36,10,2,10,0.00
2013-3-10,56,43,29,32,23,15,73,48,29,30.47,30.36,8,1,8,0.00
2013-3-11,57,48,39,44,40,31,88,74,56,30.41,30.09,5,0,5,22.91
2013-3-12,60,51,41,56,41,23,98,73,42,30.12,29.85,115,1,115,0.00
2013-3-13,53,42,30,35,22,13,85,48,28,30.21,30.00,12,1,12,0.00
2013-3-14,48,38,30,17,12,9,44,35,29,30.27,30.12,13,2,15,0.00
2013-3-15,57,42,25,26,18,9,61,40,26,30.21,29.91,6,0,6,0.00
2013-3-16,57,44,36,33,29,22,76,56,38,30.06,29.79,14,2,14,0.00
2013-3-17,42,38,35,30,24,16,79,56,40,30.41,30.06,11,3,11,0.00
2013-3-18,40,38,34,38,26,14,97,66,39,30.47,30.00,11,3,11,0.00
2013-3-19,56,44,38,40,32,13,98,68,27,30.09,29.88,10,1,10,0.00
2013-3-20,54,43,31,24,17,11,54,35,26,30.18,29.91,9,1,9,0.00
2013-3-21,44,36,28,20,11,2,54,36,30,30.03,29.88,17,4,17,0.00
2013-3-22,49,37,26,18,12,3,44,35,29,30.15,30.00,15,2,15,0.00
2013-3-23,52,40,25,22,16,9,62,40,29,30.15,30.00,12,2,13,0.00
2013-3-24,44,37,28,30,18,12,80,49,36,30.15,29.76,10,1,10,0.00
2013-3-25,37,34,32,33,31,28,95,86,75,29.85,29.65,8,1,8,0.00
2013-3-26,51,42,31,40,27,21,97,59,34,30.12,29.82,11,1,11,0.00
2013-3-27,52,44,37,26,22,17,56,42,32,30.24,30.06,15,2,15,0.00
2013-3-28,51,44,33,28,22,19,65,43,31,30.33,30.18,13,2,13,0.00
2013-3-29,56,46,33,29,22,19,62,40,27,30.39,30.24,13,2,13,0.00
2013-3-30,60,46,35,35,24,19,68,45,28,30.39,30.24,8,1,8,0.00
2013-3-31,54,47,38,47,40,29,92,76,54,30.30,29.88,6,0,6,0.00